sensor_id;sensor_type;location;lat;lon;timestamp;P1;durP1;ratioP1;P2;durP2;ratioP2
32491;SDS011;20605;49.742;18.802;2023-03-01T00:01:35;73.90;;;42.40;;
32491;SDS011;20605;49.742;18.802;2023-03-01T00:04:01;71.60;;;39.80;;
32491;SDS011;20605;49.742;18.802;2023-03-01T00:06:27;73.30;;;42.30;;
32491;SDS011;20605;49.742;18.802;2023-03-01T00:08:52;85.70;;;46.90;;
32491;SDS011;20605;49.742;18.802;2023-03-01T00:11:20;91.00;;;49.40;;
32491;SDS011;20605;49.742;18.802;2023-03-01T00:13:46;81.00;;;45.30;;
32491;SDS011;20605;49.742;18.802;2023-03-01T00:16:18;90.20;;;50.80;;
32491;SDS011;20605;49.742;18.802;2023-03-01T00:18:46;80.30;;;44.90;;
32491;SDS011;20605;49.742;18.802;2023-03-01T00:21:12;78.30;;;43.40;;
32491;SDS011;20605;49.742;18.802;2023-03-01T00:23:38;74.60;;;42.80;;
32491;SDS011;20605;49.742;18.802;2023-03-01T00:26:06;78.50;;;42.40;;
32491;SDS011;20605;49.742;18.802;2023-03-01T00:28:33;73.70;;;41.90;;
32491;SDS011;20605;49.742;18.802;2023-03-01T00:31:09;74.00;;;42.00;;
32491;SDS011;20605;49.742;18.802;2023-03-01T00:33:40;79.70;;;43.70;;
32491;SDS011;20605;49.742;18.802;2023-03-01T00:36:06;84.00;;;46.70;;
32491;SDS011;20605;49.742;18.802;2023-03-01T00:38:36;79.70;;;47.50;;
32491;SDS011;20605;49.742;18.802;2023-03-01T00:41:04;132.70;;;83.90;;
32491;SDS011;20605;49.742;18.802;2023-03-01T00:43:31;106.00;;;61.80;;
32491;SDS011;20605;49.742;18.802;2023-03-01T00:46:05;126.00;;;74.70;;
32491;SDS011;20605;49.742;18.802;2023-03-01T00:48:33;141.40;;;75.60;;
32491;SDS011;20605;49.742;18.802;2023-03-01T00:51:20;89.10;;;49.50;;
32491;SDS011;20605;49.742;18.802;2023-03-01T00:53:50;93.50;;;54.50;;
32491;SDS011;20605;49.742;18.802;2023-03-01T00:56:17;75.20;;;44.60;;
32491;SDS011;20605;49.742;18.802;2023-03-01T00:58:42;134.70;;;73.40;;
32491;SDS011;20605;49.742;18.802;2023-03-01T01:01:09;77.50;;;47.00;;
32491;SDS011;20605;49.742;18.802;2023-03-01T01:03:46;71.90;;;40.10;;
32491;SDS011;20605;49.742;18.802;2023-03-01T01:08:53;98.60;;;56.00;;
32491;SDS011;20605;49.742;18.802;2023-03-01T01:11:20;94.80;;;54.10;;
32491;SDS011;20605;49.742;18.802;2023-03-01T01:13:47;102.70;;;64.00;;
32491;SDS011;20605;49.742;18.802;2023-03-01T01:16:13;84.30;;;51.70;;
32491;SDS011;20605;49.742;18.802;2023-03-01T01:18:41;80.90;;;48.90;;
32491;SDS011;20605;49.742;18.802;2023-03-01T01:21:08;71.10;;;42.40;;
32491;SDS011;20605;49.742;18.802;2023-03-01T01:23:36;77.90;;;45.30;;
32491;SDS011;20605;49.742;18.802;2023-03-01T01:26:04;78.50;;;45.60;;
32491;SDS011;20605;49.742;18.802;2023-03-01T01:28:35;68.20;;;42.40;;
32491;SDS011;20605;49.742;18.802;2023-03-01T01:31:02;69.80;;;41.40;;
32491;SDS011;20605;49.742;18.802;2023-03-01T01:33:28;68.40;;;38.50;;
32491;SDS011;20605;49.742;18.802;2023-03-01T01:35:54;66.10;;;35.60;;
32491;SDS011;20605;49.742;18.802;2023-03-01T01:38:20;76.80;;;38.50;;
32491;SDS011;20605;49.742;18.802;2023-03-01T01:40:46;109.70;;;45.20;;
32491;SDS011;20605;49.742;18.802;2023-03-01T01:43:33;340.60;;;99.40;;
32491;SDS011;20605;49.742;18.802;2023-03-01T01:46:04;343.80;;;95.80;;
32491;SDS011;20605;49.742;18.802;2023-03-01T01:48:48;159.60;;;56.80;;
32491;SDS011;20605;49.742;18.802;2023-03-01T01:51:20;133.10;;;55.00;;
32491;SDS011;20605;49.742;18.802;2023-03-01T01:53:54;164.80;;;65.60;;
32491;SDS011;20605;49.742;18.802;2023-03-01T01:56:25;163.90;;;71.30;;
32491;SDS011;20605;49.742;18.802;2023-03-01T01:58:53;144.40;;;65.60;;
32491;SDS011;20605;49.742;18.802;2023-03-01T02:01:20;152.10;;;72.90;;
32491;SDS011;20605;49.742;18.802;2023-03-01T02:03:46;232.20;;;83.50;;
32491;SDS011;20605;49.742;18.802;2023-03-01T02:06:28;229.70;;;69.60;;
32491;SDS011;20605;49.742;18.802;2023-03-01T02:09:00;148.60;;;53.70;;
32491;SDS011;20605;49.742;18.802;2023-03-01T02:11:30;198.00;;;60.00;;
32491;SDS011;20605;49.742;18.802;2023-03-01T02:13:57;93.90;;;40.40;;
32491;SDS011;20605;49.742;18.802;2023-03-01T02:16:23;67.80;;;33.40;;
32491;SDS011;20605;49.742;18.802;2023-03-01T02:18:51;60.70;;;35.40;;
32491;SDS011;20605;49.742;18.802;2023-03-01T02:24:23;82.50;;;43.60;;
32491;SDS011;20605;49.742;18.802;2023-03-01T02:27:03;75.30;;;40.70;;
32491;SDS011;20605;49.742;18.802;2023-03-01T02:29:29;70.50;;;37.90;;
32491;SDS011;20605;49.742;18.802;2023-03-01T02:31:55;59.60;;;33.60;;
32491;SDS011;20605;49.742;18.802;2023-03-01T02:34:25;58.70;;;33.90;;
32491;SDS011;20605;49.742;18.802;2023-03-01T02:39:23;53.90;;;31.60;;
32491;SDS011;20605;49.742;18.802;2023-03-01T02:41:53;61.70;;;33.60;;
32491;SDS011;20605;49.742;18.802;2023-03-01T02:44:21;58.70;;;34.70;;
32491;SDS011;20605;49.742;18.802;2023-03-01T02:46:51;55.80;;;32.20;;
32491;SDS011;20605;49.742;18.802;2023-03-01T02:49:26;55.40;;;29.00;;
32491;SDS011;20605;49.742;18.802;2023-03-01T02:57:38;45.70;;;25.90;;
32491;SDS011;20605;49.742;18.802;2023-03-01T03:02:51;41.60;;;24.60;;
32491;SDS011;20605;49.742;18.802;2023-03-01T03:05:21;45.30;;;24.70;;
32491;SDS011;20605;49.742;18.802;2023-03-01T03:07:52;40.70;;;24.50;;
32491;SDS011;20605;49.742;18.802;2023-03-01T03:10:19;40.30;;;24.50;;
32491;SDS011;20605;49.742;18.802;2023-03-01T03:12:50;44.30;;;25.70;;
32491;SDS011;20605;49.742;18.802;2023-03-01T03:15:17;47.00;;;28.20;;
32491;SDS011;20605;49.742;18.802;2023-03-01T03:17:44;44.10;;;26.20;;
32491;SDS011;20605;49.742;18.802;2023-03-01T03:20:10;48.60;;;27.30;;
32491;SDS011;20605;49.742;18.802;2023-03-01T03:22:41;58.40;;;29.90;;
32491;SDS011;20605;49.742;18.802;2023-03-01T03:25:07;43.70;;;24.50;;
32491;SDS011;20605;49.742;18.802;2023-03-01T03:27:37;43.30;;;27.10;;
32491;SDS011;20605;49.742;18.802;2023-03-01T03:30:04;59.40;;;30.90;;
32491;SDS011;20605;49.742;18.802;2023-03-01T03:32:38;59.30;;;32.80;;
32491;SDS011;20605;49.742;18.802;2023-03-01T03:35:05;60.70;;;31.50;;
32491;SDS011;20605;49.742;18.802;2023-03-01T03:37:41;57.40;;;30.70;;
32491;SDS011;20605;49.742;18.802;2023-03-01T03:40:25;50.40;;;31.30;;
32491;SDS011;20605;49.742;18.802;2023-03-01T03:42:52;53.90;;;31.40;;
32491;SDS011;20605;49.742;18.802;2023-03-01T03:45:18;64.20;;;35.50;;
32491;SDS011;20605;49.742;18.802;2023-03-01T03:47:44;68.30;;;37.60;;
32491;SDS011;20605;49.742;18.802;2023-03-01T03:50:11;66.00;;;36.10;;
32491;SDS011;20605;49.742;18.802;2023-03-01T03:52:38;65.90;;;34.70;;
32491;SDS011;20605;49.742;18.802;2023-03-01T03:55:05;64.00;;;35.70;;
32491;SDS011;20605;49.742;18.802;2023-03-01T03:57:36;65.10;;;35.90;;
32491;SDS011;20605;49.742;18.802;2023-03-01T04:00:07;58.80;;;34.70;;
32491;SDS011;20605;49.742;18.802;2023-03-01T04:02:41;60.30;;;34.40;;
32491;SDS011;20605;49.742;18.802;2023-03-01T04:05:08;56.90;;;32.70;;
32491;SDS011;20605;49.742;18.802;2023-03-01T04:07:35;82.20;;;43.40;;
32491;SDS011;20605;49.742;18.802;2023-03-01T04:10:05;74.70;;;40.30;;
32491;SDS011;20605;49.742;18.802;2023-03-01T04:12:34;141.80;;;100.10;;
32491;SDS011;20605;49.742;18.802;2023-03-01T04:15:04;106.90;;;67.80;;
32491;SDS011;20605;49.742;18.802;2023-03-01T04:17:38;85.10;;;51.30;;
32491;SDS011;20605;49.742;18.802;2023-03-01T04:20:12;82.30;;;48.10;;
32491;SDS011;20605;49.742;18.802;2023-03-01T04:22:42;91.60;;;50.60;;
32491;SDS011;20605;49.742;18.802;2023-03-01T04:25:12;75.40;;;45.60;;
32491;SDS011;20605;49.742;18.802;2023-03-01T04:27:39;75.70;;;46.20;;
32491;SDS011;20605;49.742;18.802;2023-03-01T04:30:05;63.90;;;38.40;;
32491;SDS011;20605;49.742;18.802;2023-03-01T04:32:31;72.70;;;45.90;;
32491;SDS011;20605;49.742;18.802;2023-03-01T04:34:57;77.70;;;44.20;;
32491;SDS011;20605;49.742;18.802;2023-03-01T04:37:23;72.20;;;43.10;;
32491;SDS011;20605;49.742;18.802;2023-03-01T04:39:52;91.70;;;56.20;;
32491;SDS011;20605;49.742;18.802;2023-03-01T04:42:18;78.10;;;46.80;;
32491;SDS011;20605;49.742;18.802;2023-03-01T04:44:44;81.90;;;47.60;;
32491;SDS011;20605;49.742;18.802;2023-03-01T04:47:11;71.50;;;44.30;;
32491;SDS011;20605;49.742;18.802;2023-03-01T04:49:37;73.50;;;44.90;;
32491;SDS011;20605;49.742;18.802;2023-03-01T04:52:04;74.90;;;45.20;;
32491;SDS011;20605;49.742;18.802;2023-03-01T04:54:33;74.60;;;43.30;;
32491;SDS011;20605;49.742;18.802;2023-03-01T04:57:00;69.30;;;43.30;;
32491;SDS011;20605;49.742;18.802;2023-03-01T04:59:27;71.90;;;43.70;;
32491;SDS011;20605;49.742;18.802;2023-03-01T05:01:53;91.80;;;51.20;;
32491;SDS011;20605;49.742;18.802;2023-03-01T05:04:20;85.00;;;48.80;;
32491;SDS011;20605;49.742;18.802;2023-03-01T05:06:49;103.10;;;57.10;;
32491;SDS011;20605;49.742;18.802;2023-03-01T05:09:16;123.10;;;68.30;;
32491;SDS011;20605;49.742;18.802;2023-03-01T05:11:43;130.40;;;72.90;;
32491;SDS011;20605;49.742;18.802;2023-03-01T05:14:10;126.10;;;70.10;;
32491;SDS011;20605;49.742;18.802;2023-03-01T05:16:36;124.20;;;71.40;;
32491;SDS011;20605;49.742;18.802;2023-03-01T05:19:02;111.60;;;64.10;;
32491;SDS011;20605;49.742;18.802;2023-03-01T05:21:37;118.60;;;65.00;;
32491;SDS011;20605;49.742;18.802;2023-03-01T05:24:23;90.20;;;49.50;;
32491;SDS011;20605;49.742;18.802;2023-03-01T05:26:49;79.90;;;43.50;;
32491;SDS011;20605;49.742;18.802;2023-03-01T05:29:17;60.50;;;36.00;;
32491;SDS011;20605;49.742;18.802;2023-03-01T05:31:59;52.60;;;31.90;;
32491;SDS011;20605;49.742;18.802;2023-03-01T05:34:30;54.40;;;31.70;;
32491;SDS011;20605;49.742;18.802;2023-03-01T05:36:57;50.60;;;30.10;;
32491;SDS011;20605;49.742;18.802;2023-03-01T05:39:25;48.40;;;30.50;;
32491;SDS011;20605;49.742;18.802;2023-03-01T05:41:53;55.60;;;31.30;;
32491;SDS011;20605;49.742;18.802;2023-03-01T05:44:19;65.50;;;38.30;;
32491;SDS011;20605;49.742;18.802;2023-03-01T05:46:45;55.80;;;31.80;;
32491;SDS011;20605;49.742;18.802;2023-03-01T05:49:12;48.90;;;30.60;;
32491;SDS011;20605;49.742;18.802;2023-03-01T05:51:39;52.90;;;30.80;;
32491;SDS011;20605;49.742;18.802;2023-03-01T05:54:05;60.70;;;34.70;;
32491;SDS011;20605;49.742;18.802;2023-03-01T05:56:34;63.20;;;35.00;;
32491;SDS011;20605;49.742;18.802;2023-03-01T05:59:01;65.30;;;35.50;;
32491;SDS011;20605;49.742;18.802;2023-03-01T06:01:28;90.10;;;48.10;;
32491;SDS011;20605;49.742;18.802;2023-03-01T06:03:55;112.90;;;53.60;;
32491;SDS011;20605;49.742;18.802;2023-03-01T06:06:22;109.50;;;52.60;;
32491;SDS011;20605;49.742;18.802;2023-03-01T06:08:49;93.60;;;46.50;;
32491;SDS011;20605;49.742;18.802;2023-03-01T06:11:15;77.40;;;36.10;;
32491;SDS011;20605;49.742;18.802;2023-03-01T06:13:42;57.00;;;34.70;;
32491;SDS011;20605;49.742;18.802;2023-03-01T06:16:09;51.20;;;32.20;;
32491;SDS011;20605;49.742;18.802;2023-03-01T06:18:36;55.00;;;31.70;;
32491;SDS011;20605;49.742;18.802;2023-03-01T06:21:02;53.30;;;31.80;;
32491;SDS011;20605;49.742;18.802;2023-03-01T06:23:29;51.50;;;31.40;;
32491;SDS011;20605;49.742;18.802;2023-03-01T06:25:55;46.80;;;32.50;;
32491;SDS011;20605;49.742;18.802;2023-03-01T06:28:20;49.30;;;34.50;;
32491;SDS011;20605;49.742;18.802;2023-03-01T06:30:47;83.40;;;50.90;;
32491;SDS011;20605;49.742;18.802;2023-03-01T06:33:15;71.20;;;56.10;;
32491;SDS011;20605;49.742;18.802;2023-03-01T06:35:40;47.80;;;32.20;;
32491;SDS011;20605;49.742;18.802;2023-03-01T06:38:06;104.00;;;79.20;;
32491;SDS011;20605;49.742;18.802;2023-03-01T06:40:32;358.50;;;322.40;;
32491;SDS011;20605;49.742;18.802;2023-03-01T06:43:00;84.10;;;75.10;;
32491;SDS011;20605;49.742;18.802;2023-03-01T06:45:26;43.60;;;32.00;;
32491;SDS011;20605;49.742;18.802;2023-03-01T06:47:52;38.60;;;28.30;;
32491;SDS011;20605;49.742;18.802;2023-03-01T06:50:27;35.40;;;28.20;;
32491;SDS011;20605;49.742;18.802;2023-03-01T06:52:57;31.90;;;27.60;;
32491;SDS011;20605;49.742;18.802;2023-03-01T06:55:23;26.90;;;21.70;;
32491;SDS011;20605;49.742;18.802;2023-03-01T06:57:53;26.70;;;23.60;;
32491;SDS011;20605;49.742;18.802;2023-03-01T07:00:22;31.40;;;23.30;;
32491;SDS011;20605;49.742;18.802;2023-03-01T07:02:49;36.20;;;27.40;;
32491;SDS011;20605;49.742;18.802;2023-03-01T07:05:16;30.40;;;24.90;;
32491;SDS011;20605;49.742;18.802;2023-03-01T07:07:42;32.50;;;27.30;;
32491;SDS011;20605;49.742;18.802;2023-03-01T07:10:08;27.40;;;24.50;;
32491;SDS011;20605;49.742;18.802;2023-03-01T07:12:36;37.20;;;29.10;;
32491;SDS011;20605;49.742;18.802;2023-03-01T07:15:01;150.80;;;96.50;;
32491;SDS011;20605;49.742;18.802;2023-03-01T07:17:27;36.10;;;28.70;;
32491;SDS011;20605;49.742;18.802;2023-03-01T07:19:54;36.00;;;30.80;;
32491;SDS011;20605;49.742;18.802;2023-03-01T07:22:19;30.70;;;27.00;;
32491;SDS011;20605;49.742;18.802;2023-03-01T07:24:45;32.00;;;26.70;;
32491;SDS011;20605;49.742;18.802;2023-03-01T07:27:14;29.40;;;26.30;;
32491;SDS011;20605;49.742;18.802;2023-03-01T07:29:53;46.30;;;37.00;;
32491;SDS011;20605;49.742;18.802;2023-03-01T07:32:27;54.30;;;41.70;;
32491;SDS011;20605;49.742;18.802;2023-03-01T07:34:53;36.70;;;29.50;;
32491;SDS011;20605;49.742;18.802;2023-03-01T07:37:19;32.10;;;27.90;;
32491;SDS011;20605;49.742;18.802;2023-03-01T07:39:45;32.90;;;29.30;;
32491;SDS011;20605;49.742;18.802;2023-03-01T07:42:11;34.30;;;30.70;;
32491;SDS011;20605;49.742;18.802;2023-03-01T07:44:36;33.50;;;30.10;;
32491;SDS011;20605;49.742;18.802;2023-03-01T07:47:03;39.70;;;35.70;;
32491;SDS011;20605;49.742;18.802;2023-03-01T07:49:29;42.30;;;37.80;;
32491;SDS011;20605;49.742;18.802;2023-03-01T07:51:55;51.60;;;45.70;;
32491;SDS011;20605;49.742;18.802;2023-03-01T07:54:21;58.70;;;52.50;;
32491;SDS011;20605;49.742;18.802;2023-03-01T07:56:47;52.60;;;47.30;;
32491;SDS011;20605;49.742;18.802;2023-03-01T07:59:13;50.20;;;44.90;;
32491;SDS011;20605;49.742;18.802;2023-03-01T08:01:39;44.30;;;39.70;;
32491;SDS011;20605;49.742;18.802;2023-03-01T08:04:05;49.90;;;44.90;;
32491;SDS011;20605;49.742;18.802;2023-03-01T08:06:33;48.80;;;43.70;;
32491;SDS011;20605;49.742;18.802;2023-03-01T08:09:01;48.30;;;43.00;;
32491;SDS011;20605;49.742;18.802;2023-03-01T08:11:27;51.60;;;46.30;;
32491;SDS011;20605;49.742;18.802;2023-03-01T08:13:54;50.40;;;45.30;;
32491;SDS011;20605;49.742;18.802;2023-03-01T08:16:20;49.10;;;44.00;;
32491;SDS011;20605;49.742;18.802;2023-03-01T08:18:46;48.00;;;43.30;;
32491;SDS011;20605;49.742;18.802;2023-03-01T08:21:13;48.50;;;43.60;;
32491;SDS011;20605;49.742;18.802;2023-03-01T08:23:41;48.10;;;42.90;;
32491;SDS011;20605;49.742;18.802;2023-03-01T08:28:38;46.10;;;41.50;;
32491;SDS011;20605;49.742;18.802;2023-03-01T08:31:14;47.10;;;42.20;;
32491;SDS011;20605;49.742;18.802;2023-03-01T08:33:40;46.20;;;41.60;;
32491;SDS011;20605;49.742;18.802;2023-03-01T08:36:06;45.50;;;40.80;;
32491;SDS011;20605;49.742;18.802;2023-03-01T08:38:33;44.00;;;39.40;;
32491;SDS011;20605;49.742;18.802;2023-03-01T08:41:01;46.40;;;41.50;;
32491;SDS011;20605;49.742;18.802;2023-03-01T08:43:28;43.20;;;38.90;;
32491;SDS011;20605;49.742;18.802;2023-03-01T08:45:54;43.30;;;39.10;;
32491;SDS011;20605;49.742;18.802;2023-03-01T08:48:20;41.30;;;37.20;;
32491;SDS011;20605;49.742;18.802;2023-03-01T08:50:46;41.90;;;37.80;;
32491;SDS011;20605;49.742;18.802;2023-03-01T08:53:12;47.50;;;42.40;;
32491;SDS011;20605;49.742;18.802;2023-03-01T08:55:37;44.00;;;39.40;;
32491;SDS011;20605;49.742;18.802;2023-03-01T08:58:03;39.80;;;36.10;;
32491;SDS011;20605;49.742;18.802;2023-03-01T09:00:29;42.20;;;38.20;;
32491;SDS011;20605;49.742;18.802;2023-03-01T09:02:55;41.90;;;37.70;;
32491;SDS011;20605;49.742;18.802;2023-03-01T09:05:20;40.70;;;36.70;;
32491;SDS011;20605;49.742;18.802;2023-03-01T09:07:46;40.90;;;36.90;;
32491;SDS011;20605;49.742;18.802;2023-03-01T09:10:12;42.60;;;38.30;;
32491;SDS011;20605;49.742;18.802;2023-03-01T09:12:38;39.60;;;35.90;;
32491;SDS011;20605;49.742;18.802;2023-03-01T09:15:03;40.10;;;36.30;;
32491;SDS011;20605;49.742;18.802;2023-03-01T09:17:29;44.10;;;40.00;;
32491;SDS011;20605;49.742;18.802;2023-03-01T09:19:55;43.70;;;39.30;;
32491;SDS011;20605;49.742;18.802;2023-03-01T09:22:21;43.60;;;39.50;;
32491;SDS011;20605;49.742;18.802;2023-03-01T09:24:47;42.10;;;38.00;;
32491;SDS011;20605;49.742;18.802;2023-03-01T09:27:12;37.30;;;33.70;;
32491;SDS011;20605;49.742;18.802;2023-03-01T09:29:39;36.40;;;32.70;;
32491;SDS011;20605;49.742;18.802;2023-03-01T09:32:05;36.80;;;32.90;;
32491;SDS011;20605;49.742;18.802;2023-03-01T09:34:33;34.10;;;30.70;;
32491;SDS011;20605;49.742;18.802;2023-03-01T09:37:19;33.00;;;29.70;;
32491;SDS011;20605;49.742;18.802;2023-03-01T09:39:45;32.90;;;29.70;;
32491;SDS011;20605;49.742;18.802;2023-03-01T09:42:10;34.70;;;31.40;;
32491;SDS011;20605;49.742;18.802;2023-03-01T09:44:40;35.90;;;32.30;;
32491;SDS011;20605;49.742;18.802;2023-03-01T09:47:35;37.20;;;33.50;;
32491;SDS011;20605;49.742;18.802;2023-03-01T09:50:11;36.10;;;32.60;;
32491;SDS011;20605;49.742;18.802;2023-03-01T10:00:49;36.90;;;33.20;;
32491;SDS011;20605;49.742;18.802;2023-03-01T10:03:26;40.70;;;36.60;;
32491;SDS011;20605;49.742;18.802;2023-03-01T10:06:19;38.70;;;34.70;;
32491;SDS011;20605;49.742;18.802;2023-03-01T10:08:53;41.80;;;37.20;;
32491;SDS011;20605;49.742;18.802;2023-03-01T10:11:40;47.50;;;41.20;;
32491;SDS011;20605;49.742;18.802;2023-03-01T10:22:43;61.90;;;47.60;;
32491;SDS011;20605;49.742;18.802;2023-03-01T10:25:15;53.10;;;45.50;;
32491;SDS011;20605;49.742;18.802;2023-03-01T10:30:55;57.20;;;45.20;;
32491;SDS011;20605;49.742;18.802;2023-03-01T10:33:25;59.70;;;45.30;;
32491;SDS011;20605;49.742;18.802;2023-03-01T10:35:54;59.20;;;44.40;;
32491;SDS011;20605;49.742;18.802;2023-03-01T10:38:20;67.40;;;50.00;;
32491;SDS011;20605;49.742;18.802;2023-03-01T10:40:53;77.50;;;57.10;;
32491;SDS011;20605;49.742;18.802;2023-03-01T10:43:24;67.80;;;49.50;;
32491;SDS011;20605;49.742;18.802;2023-03-01T10:45:56;62.40;;;46.50;;
32491;SDS011;20605;49.742;18.802;2023-03-01T10:48:23;67.00;;;48.30;;
32491;SDS011;20605;49.742;18.802;2023-03-01T10:53:27;59.10;;;41.70;;
32491;SDS011;20605;49.742;18.802;2023-03-01T10:56:12;80.40;;;46.70;;
32491;SDS011;20605;49.742;18.802;2023-03-01T10:58:40;67.10;;;42.60;;
32491;SDS011;20605;49.742;18.802;2023-03-01T11:04:03;55.40;;;37.70;;
32491;SDS011;20605;49.742;18.802;2023-03-01T11:06:34;65.10;;;41.50;;
32491;SDS011;20605;49.742;18.802;2023-03-01T11:09:14;55.50;;;36.80;;
32491;SDS011;20605;49.742;18.802;2023-03-01T11:11:41;50.80;;;31.70;;
32491;SDS011;20605;49.742;18.802;2023-03-01T11:16:40;45.90;;;31.80;;
32491;SDS011;20605;49.742;18.802;2023-03-01T11:21:44;47.10;;;31.50;;
32491;SDS011;20605;49.742;18.802;2023-03-01T11:24:13;47.40;;;30.80;;
32491;SDS011;20605;49.742;18.802;2023-03-01T11:26:42;41.90;;;28.70;;
32491;SDS011;20605;49.742;18.802;2023-03-01T11:29:16;45.90;;;31.10;;
32491;SDS011;20605;49.742;18.802;2023-03-01T11:31:50;43.20;;;30.50;;
32491;SDS011;20605;49.742;18.802;2023-03-01T11:34:19;44.10;;;28.90;;
32491;SDS011;20605;49.742;18.802;2023-03-01T11:36:54;39.40;;;27.70;;
32491;SDS011;20605;49.742;18.802;2023-03-01T11:42:12;44.60;;;29.10;;
32491;SDS011;20605;49.742;18.802;2023-03-01T11:44:43;49.20;;;32.60;;
32491;SDS011;20605;49.742;18.802;2023-03-01T11:55:51;42.40;;;29.60;;
32491;SDS011;20605;49.742;18.802;2023-03-01T11:58:33;48.60;;;31.20;;
32491;SDS011;20605;49.742;18.802;2023-03-01T12:12:03;54.40;;;33.80;;
32491;SDS011;20605;49.742;18.802;2023-03-01T12:17:07;39.80;;;28.40;;
32491;SDS011;20605;49.742;18.802;2023-03-01T12:22:29;41.50;;;25.90;;
32491;SDS011;20605;49.742;18.802;2023-03-01T12:28:09;37.40;;;24.80;;
32491;SDS011;20605;49.742;18.802;2023-03-01T12:30:54;36.50;;;24.90;;
32491;SDS011;20605;49.742;18.802;2023-03-01T12:33:45;30.00;;;22.70;;
32491;SDS011;20605;49.742;18.802;2023-03-01T12:50:04;32.00;;;22.40;;
32491;SDS011;20605;49.742;18.802;2023-03-01T12:52:44;27.90;;;20.20;;
32491;SDS011;20605;49.742;18.802;2023-03-01T12:55:26;28.90;;;20.70;;
32491;SDS011;20605;49.742;18.802;2023-03-01T13:03:48;31.90;;;22.00;;
32491;SDS011;20605;49.742;18.802;2023-03-01T13:20:16;84.00;;;47.90;;
32491;SDS011;20605;49.742;18.802;2023-03-01T13:22:47;46.60;;;30.10;;
32491;SDS011;20605;49.742;18.802;2023-03-01T13:25:27;82.80;;;49.40;;
32491;SDS011;20605;49.742;18.802;2023-03-01T13:27:53;73.30;;;45.60;;
32491;SDS011;20605;49.742;18.802;2023-03-01T13:30:57;48.10;;;31.30;;
32491;SDS011;20605;49.742;18.802;2023-03-01T13:35:59;38.30;;;25.80;;
32491;SDS011;20605;49.742;18.802;2023-03-01T13:46:47;36.40;;;25.10;;
32491;SDS011;20605;49.742;18.802;2023-03-01T13:49:16;36.90;;;24.50;;
32491;SDS011;20605;49.742;18.802;2023-03-01T13:51:51;36.60;;;23.80;;
32491;SDS011;20605;49.742;18.802;2023-03-01T13:54:22;42.40;;;25.20;;
32491;SDS011;20605;49.742;18.802;2023-03-01T13:56:54;31.10;;;22.90;;
32491;SDS011;20605;49.742;18.802;2023-03-01T13:59:21;31.70;;;21.90;;
32491;SDS011;20605;49.742;18.802;2023-03-01T14:01:52;36.20;;;21.50;;
32491;SDS011;20605;49.742;18.802;2023-03-01T14:04:23;33.20;;;22.20;;
32491;SDS011;20605;49.742;18.802;2023-03-01T14:07:05;33.00;;;21.20;;
32491;SDS011;20605;49.742;18.802;2023-03-01T14:09:34;40.50;;;25.40;;
32491;SDS011;20605;49.742;18.802;2023-03-01T14:15:28;28.60;;;19.50;;
32491;SDS011;20605;49.742;18.802;2023-03-01T14:18:20;35.30;;;23.70;;
32491;SDS011;20605;49.742;18.802;2023-03-01T14:21:17;39.70;;;25.70;;
32491;SDS011;20605;49.742;18.802;2023-03-01T14:23:44;30.90;;;21.10;;
32491;SDS011;20605;49.742;18.802;2023-03-01T14:26:12;36.10;;;24.70;;
32491;SDS011;20605;49.742;18.802;2023-03-01T14:28:38;33.50;;;23.30;;
32491;SDS011;20605;49.742;18.802;2023-03-01T14:31:51;34.60;;;22.10;;
32491;SDS011;20605;49.742;18.802;2023-03-01T14:33:57;31.50;;;19.80;;
32491;SDS011;20605;49.742;18.802;2023-03-01T14:36:27;37.50;;;20.40;;
32491;SDS011;20605;49.742;18.802;2023-03-01T14:38:54;30.30;;;19.00;;
32491;SDS011;20605;49.742;18.802;2023-03-01T14:41:24;33.90;;;19.80;;
32491;SDS011;20605;49.742;18.802;2023-03-01T14:43:57;75.40;;;44.50;;
32491;SDS011;20605;49.742;18.802;2023-03-01T14:51:52;32.00;;;21.90;;
32491;SDS011;20605;49.742;18.802;2023-03-01T14:54:21;111.40;;;73.20;;
32491;SDS011;20605;49.742;18.802;2023-03-01T14:56:52;103.30;;;61.10;;
32491;SDS011;20605;49.742;18.802;2023-03-01T14:59:23;55.70;;;41.30;;
32491;SDS011;20605;49.742;18.802;2023-03-01T15:01:50;32.90;;;22.20;;
32491;SDS011;20605;49.742;18.802;2023-03-01T15:04:18;30.70;;;22.10;;
32491;SDS011;20605;49.742;18.802;2023-03-01T15:06:47;28.40;;;19.00;;
32491;SDS011;20605;49.742;18.802;2023-03-01T15:09:15;39.80;;;25.70;;
32491;SDS011;20605;49.742;18.802;2023-03-01T15:11:43;32.00;;;19.80;;
32491;SDS011;20605;49.742;18.802;2023-03-01T15:17:04;30.90;;;20.00;;
32491;SDS011;20605;49.742;18.802;2023-03-01T15:19:30;29.80;;;19.00;;
32491;SDS011;20605;49.742;18.802;2023-03-01T15:21:56;49.30;;;28.20;;
32491;SDS011;20605;49.742;18.802;2023-03-01T15:24:25;36.50;;;20.40;;
32491;SDS011;20605;49.742;18.802;2023-03-01T15:26:58;32.00;;;21.70;;
32491;SDS011;20605;49.742;18.802;2023-03-01T15:29:32;28.30;;;18.60;;
32491;SDS011;20605;49.742;18.802;2023-03-01T15:32:27;51.90;;;28.50;;
32491;SDS011;20605;49.742;18.802;2023-03-01T15:37:59;26.90;;;17.90;;
32491;SDS011;20605;49.742;18.802;2023-03-01T15:40:27;25.30;;;16.50;;
32491;SDS011;20605;49.742;18.802;2023-03-01T15:42:57;25.10;;;16.20;;
32491;SDS011;20605;49.742;18.802;2023-03-01T15:45:28;33.10;;;19.00;;
32491;SDS011;20605;49.742;18.802;2023-03-01T15:48:05;27.60;;;16.90;;
32491;SDS011;20605;49.742;18.802;2023-03-01T15:50:42;27.90;;;16.40;;
32491;SDS011;20605;49.742;18.802;2023-03-01T15:53:13;29.90;;;18.30;;
32491;SDS011;20605;49.742;18.802;2023-03-01T15:55:40;33.50;;;19.20;;
32491;SDS011;20605;49.742;18.802;2023-03-01T15:58:10;34.40;;;20.20;;
32491;SDS011;20605;49.742;18.802;2023-03-01T16:00:38;41.20;;;22.20;;
32491;SDS011;20605;49.742;18.802;2023-03-01T16:03:05;35.30;;;20.20;;
32491;SDS011;20605;49.742;18.802;2023-03-01T16:05:34;37.50;;;23.10;;
32491;SDS011;20605;49.742;18.802;2023-03-01T16:08:01;37.00;;;21.60;;
32491;SDS011;20605;49.742;18.802;2023-03-01T16:10:51;35.10;;;19.10;;
32491;SDS011;20605;49.742;18.802;2023-03-01T16:13:50;34.70;;;20.30;;
32491;SDS011;20605;49.742;18.802;2023-03-01T16:16:17;35.80;;;21.50;;
32491;SDS011;20605;49.742;18.802;2023-03-01T16:18:43;31.00;;;19.40;;
32491;SDS011;20605;49.742;18.802;2023-03-01T16:21:14;40.90;;;24.40;;
32491;SDS011;20605;49.742;18.802;2023-03-01T16:23:50;44.20;;;25.90;;
32491;SDS011;20605;49.742;18.802;2023-03-01T16:26:17;43.60;;;24.60;;
32491;SDS011;20605;49.742;18.802;2023-03-01T16:28:44;43.10;;;24.40;;
32491;SDS011;20605;49.742;18.802;2023-03-01T16:31:10;42.90;;;24.60;;
32491;SDS011;20605;49.742;18.802;2023-03-01T16:33:37;48.40;;;28.20;;
32491;SDS011;20605;49.742;18.802;2023-03-01T16:36:08;48.10;;;28.30;;
32491;SDS011;20605;49.742;18.802;2023-03-01T16:38:35;48.90;;;27.00;;
32491;SDS011;20605;49.742;18.802;2023-03-01T16:41:01;59.60;;;32.90;;
32491;SDS011;20605;49.742;18.802;2023-03-01T16:43:27;118.90;;;68.40;;